Oval Lp No.11 — JL6306 — position and weather

sailwx.info

Track history (hours):
 
Tides and Currents Weather Stations Pressure Air Temp Water Temp Dewpoint Dewpoint Depression Visibility Wind Speed Wind Dir Waves Ship Positions

Oval Lp No.11

Last reported at 2015-May-23 00:32 UTC. Time now 2015-May-23 01:18 UTC.
Position N 35°25' E 139°39'.

Length 67 m; draft 3.6 m.

Type: Ship (hazmat cat A). MMSI: 431500366.

Date/timePositionNaut miles runAvg speedWind from/ knotsBaromVisibWave heightAir tempDewpointWater temp
2015-May-23 00:32N 35°25' E 139°39'0 0.0
2015-May-22 23:32N 35°25' E 139°39'3 2.8
2015-May-22 22:33N 35°22' E 139°40'0 0.0
2015-May-22 21:33N 35°22' E 139°40'0 0.0
2015-May-22 20:33N 35°22' E 139°40'0 0.0
2015-May-22 19:33N 35°22' E 139°40'0 0.0
2015-May-22 18:33N 35°22' E 139°40'0 0.0
2015-May-22 17:33N 35°22' E 139°40'0 0.0
2015-May-22 16:33N 35°22' E 139°40'0 0.0
2015-May-22 15:33N 35°22' E 139°40'0 0.0
2015-May-22 14:30N 35°22' E 139°40'0 0.1
2015-May-22 13:33N 35°22' E 139°40'0 0.1
2015-May-22 12:33N 35°22' E 139°40'0 0.0
2015-May-22 11:33N 35°22' E 139°40'5 4.8
2015-May-22 10:33N 35°19' E 139°44'1211.5
2015-May-22 09:33N 35°07' E 139°44'2612.5
2015-May-22 07:28N 34°50' E 139°21'  
2015-May-18 06:15N 35°08' E 139°42'810.9
2015-May-18 05:33N 35°15' E 139°46'1010.0
2015-May-18 04:33N 35°24' E 139°43'1111.2
2015-May-18 03:33N 35°31' E 139°55'6 5.9
2015-May-18 02:29N 35°31' E 140°02'0 0.0
2015-May-18 01:23N 35°31' E 140°02'0 0.0
2015-May-18 00:23N 35°31' E 140°02'0 0.0
2015-May-17 23:27N 35°31' E 140°02'6 6.4
2015-May-17 22:33N 35°29' E 139°55'0 0.0
2015-May-17 21:33N 35°29' E 139°55'0 0.0
2015-May-17 20:30N 35°29' E 139°55'0 0.0
2015-May-17 19:30N 35°29' E 139°55'0 0.0
2015-May-17 18:33N 35°29' E 139°55'0 0.0
2015-May-17 17:33N 35°29' E 139°55'0 0.0
2015-May-17 16:33N 35°29' E 139°55'0 0.0
2015-May-17 15:27N 35°29' E 139°55'0 0.0
2015-May-17 14:33N 35°29' E 139°55'0 0.0
2015-May-17 13:33N 35°29' E 139°55'0 0.0
2015-May-17 12:30N 35°29' E 139°55'0 0.0
2015-May-17 11:33N 35°29' E 139°55'0 0.0
2015-May-17 10:30N 35°29' E 139°55'0 0.0
2015-May-17 09:33N 35°29' E 139°55'0 0.0
2015-May-17 08:33N 35°29' E 139°55'0 0.0
2015-May-17 07:30N 35°29' E 139°56'0 0.0
2015-May-17 06:33N 35°29' E 139°56'0 0.1
2015-May-17 05:33N 35°29' E 139°55'0 0.1
2015-May-17 04:33N 35°29' E 139°55'0 0.0
2015-May-17 03:27N 35°29' E 139°55'0 0.0
2015-May-17 02:33N 35°29' E 139°55'0 0.0
2015-May-17 01:33N 35°29' E 139°55'0 0.0
2015-May-17 00:33N 35°29' E 139°55'0 0.0
2015-May-16 23:33N 35°29' E 139°55'0 0.0
2015-May-16 22:33N 35°29' E 139°55'0 0.0
2015-May-16 21:33N 35°29' E 139°55'0 0.0
2015-May-16 20:33N 35°29' E 139°55'0 0.0
2015-May-16 19:33N 35°29' E 139°55'0 0.0
2015-May-16 18:33N 35°29' E 139°55'0 0.1
2015-May-16 17:33N 35°29' E 139°55'0 0.0
2015-May-16 16:30N 35°29' E 139°55'0 0.1
2015-May-16 15:33N 35°29' E 139°55'0 0.0
2015-May-16 14:33N 35°29' E 139°55'0 0.0
2015-May-16 13:33N 35°29' E 139°55'0 0.0
2015-May-16 12:30N 35°29' E 139°55'0 0.0
2015-May-16 11:33N 35°29' E 139°55'0 0.0
2015-May-16 10:33N 35°29' E 139°55'0 0.1
2015-May-16 09:33N 35°29' E 139°55'8 7.6
2015-May-16 08:33N 35°31' E 139°46'0 0.0
2015-May-16 07:30N 35°31' E 139°46'0 0.0
2015-May-16 06:33N 35°31' E 139°46'0 0.0
2015-May-16 05:33N 35°31' E 139°46'3 2.5
2015-May-16 04:31N 35°29' E 139°49'0 0.1
2015-May-16 03:31N 35°29' E 139°49'0 0.0
2015-May-16 02:31N 35°29' E 139°49'0 0.0
2015-May-16 01:31N 35°29' E 139°49'0 0.0
2015-May-16 00:31N 35°29' E 139°49'0 0.0
2015-May-15 23:31N 35°29' E 139°49'0 0.0
2015-May-15 22:31N 35°29' E 139°49'0 0.0
2015-May-15 21:31N 35°29' E 139°49'0 0.0
2015-May-15 20:31N 35°29' E 139°49'0 0.0
2015-May-15 19:28N 35°29' E 139°49'0 0.0
2015-May-15 18:28N 35°29' E 139°49'0 0.0
2015-May-15 17:31N 35°29' E 139°49'0 0.0
2015-May-15 16:31N 35°29' E 139°49'0 0.0
2015-May-15 15:28N 35°29' E 139°49'0 0.0
2015-May-15 14:31N 35°29' E 139°49'0 0.0
2015-May-15 13:31N 35°29' E 139°49'0 0.0
2015-May-15 12:31N 35°29' E 139°49'1 1.3
2015-May-15 11:33N 35°28' E 139°48'1110.9
2015-May-15 10:33N 35°17' E 139°45'1110.8
2015-May-15 09:33N 35°07' E 139°44'24410.0
2015-May-14 09:08N 33°60' E 135°00'610.3
2015-May-14 08:33N 34°06' E 134°60'1010.5
2015-May-14 07:33N 34°16' E 134°58'10 9.6
2015-May-14 06:31N 34°25' E 135°05'1111.2
2015-May-14 05:33N 34°30' E 135°16'9 9.0
2015-May-14 04:33N 34°33' E 135°26'1 0.2
2015-May-13 23:33N 34°33' E 135°25'8 8.0
2015-May-13 22:33N 34°31' E 135°16'1212.3
2015-May-13 21:33N 34°22' E 135°05'1111.3
2015-May-13 20:34N 34°12' E 134°60'1312.7
2015-May-13 19:31N 33°59' E 135°02'  
Track history (hours):
 
Tides and Currents Weather Stations Pressure Air Temp Water Temp Dewpoint Dewpoint Depression Visibility Wind Speed Wind Dir Waves Ship Positions

Oval Lp No.11

Last reported at 2015-May-23 00:32 UTC. Time now 2015-May-23 01:18 UTC.
Position N 35°25' E 139°39'.

Length 67 m; draft 3.6 m.

Type: Ship (hazmat cat A). MMSI: 431500366.

Date/timePositionNaut miles runAvg speedWind from/ knotsBaromVisibWave heightAir tempDewpointWater temp
2015-May-23 00:32N 35°25' E 139°39'0 0.0
2015-May-22 23:32N 35°25' E 139°39'3 2.8
2015-May-22 22:33N 35°22' E 139°40'0 0.0
2015-May-22 21:33N 35°22' E 139°40'0 0.0
2015-May-22 20:33N 35°22' E 139°40'0 0.0
2015-May-22 19:33N 35°22' E 139°40'0 0.0
2015-May-22 18:33N 35°22' E 139°40'0 0.0
2015-May-22 17:33N 35°22' E 139°40'0 0.0
2015-May-22 16:33N 35°22' E 139°40'0 0.0
2015-May-22 15:33N 35°22' E 139°40'0 0.0
2015-May-22 14:30N 35°22' E 139°40'0 0.1
2015-May-22 13:33N 35°22' E 139°40'0 0.1
2015-May-22 12:33N 35°22' E 139°40'0 0.0
2015-May-22 11:33N 35°22' E 139°40'5 4.8
2015-May-22 10:33N 35°19' E 139°44'1211.5
2015-May-22 09:33N 35°07' E 139°44'2612.5
2015-May-22 07:28N 34°50' E 139°21'  
2015-May-18 06:15N 35°08' E 139°42'810.9
2015-May-18 05:33N 35°15' E 139°46'1010.0
2015-May-18 04:33N 35°24' E 139°43'1111.2
2015-May-18 03:33N 35°31' E 139°55'6 5.9
2015-May-18 02:29N 35°31' E 140°02'0 0.0
2015-May-18 01:23N 35°31' E 140°02'0 0.0
2015-May-18 00:23N 35°31' E 140°02'0 0.0
2015-May-17 23:27N 35°31' E 140°02'6 6.4
2015-May-17 22:33N 35°29' E 139°55'0 0.0
2015-May-17 21:33N 35°29' E 139°55'0 0.0
2015-May-17 20:30N 35°29' E 139°55'0 0.0
2015-May-17 19:30N 35°29' E 139°55'0 0.0
2015-May-17 18:33N 35°29' E 139°55'0 0.0
2015-May-17 17:33N 35°29' E 139°55'0 0.0
2015-May-17 16:33N 35°29' E 139°55'0 0.0
2015-May-17 15:27N 35°29' E 139°55'0 0.0
2015-May-17 14:33N 35°29' E 139°55'0 0.0
2015-May-17 13:33N 35°29' E 139°55'0 0.0
2015-May-17 12:30N 35°29' E 139°55'0 0.0
2015-May-17 11:33N 35°29' E 139°55'0 0.0
2015-May-17 10:30N 35°29' E 139°55'0 0.0
2015-May-17 09:33N 35°29' E 139°55'0 0.0
2015-May-17 08:33N 35°29' E 139°55'0 0.0
2015-May-17 07:30N 35°29' E 139°56'0 0.0
2015-May-17 06:33N 35°29' E 139°56'0 0.1
2015-May-17 05:33N 35°29' E 139°55'0 0.1
2015-May-17 04:33N 35°29' E 139°55'0 0.0
2015-May-17 03:27N 35°29' E 139°55'0 0.0
2015-May-17 02:33N 35°29' E 139°55'0 0.0
2015-May-17 01:33N 35°29' E 139°55'0 0.0
2015-May-17 00:33N 35°29' E 139°55'0 0.0
2015-May-16 23:33N 35°29' E 139°55'0 0.0
2015-May-16 22:33N 35°29' E 139°55'0 0.0
2015-May-16 21:33N 35°29' E 139°55'0 0.0
2015-May-16 20:33N 35°29' E 139°55'0 0.0
2015-May-16 19:33N 35°29' E 139°55'0 0.0
2015-May-16 18:33N 35°29' E 139°55'0 0.1
2015-May-16 17:33N 35°29' E 139°55'0 0.0
2015-May-16 16:30N 35°29' E 139°55'0 0.1
2015-May-16 15:33N 35°29' E 139°55'0 0.0
2015-May-16 14:33N 35°29' E 139°55'0 0.0
2015-May-16 13:33N 35°29' E 139°55'0 0.0
2015-May-16 12:30N 35°29' E 139°55'0 0.0
2015-May-16 11:33N 35°29' E 139°55'0 0.0
2015-May-16 10:33N 35°29' E 139°55'0 0.1
2015-May-16 09:33N 35°29' E 139°55'8 7.6
2015-May-16 08:33N 35°31' E 139°46'0 0.0
2015-May-16 07:30N 35°31' E 139°46'0 0.0
2015-May-16 06:33N 35°31' E 139°46'0 0.0
2015-May-16 05:33N 35°31' E 139°46'3 2.5
2015-May-16 04:31N 35°29' E 139°49'0 0.1
2015-May-16 03:31N 35°29' E 139°49'0 0.0
2015-May-16 02:31N 35°29' E 139°49'0 0.0
2015-May-16 01:31N 35°29' E 139°49'0 0.0
2015-May-16 00:31N 35°29' E 139°49'0 0.0
2015-May-15 23:31N 35°29' E 139°49'0 0.0
2015-May-15 22:31N 35°29' E 139°49'0 0.0
2015-May-15 21:31N 35°29' E 139°49'0 0.0
2015-May-15 20:31N 35°29' E 139°49'0 0.0
2015-May-15 19:28N 35°29' E 139°49'0 0.0
2015-May-15 18:28N 35°29' E 139°49'0 0.0
2015-May-15 17:31N 35°29' E 139°49'0 0.0
2015-May-15 16:31N 35°29' E 139°49'0 0.0
2015-May-15 15:28N 35°29' E 139°49'0 0.0
2015-May-15 14:31N 35°29' E 139°49'0 0.0
2015-May-15 13:31N 35°29' E 139°49'0 0.0
2015-May-15 12:31N 35°29' E 139°49'1 1.3
2015-May-15 11:33N 35°28' E 139°48'1110.9
2015-May-15 10:33N 35°17' E 139°45'1110.8
2015-May-15 09:33N 35°07' E 139°44'24410.0
2015-May-14 09:08N 33°60' E 135°00'610.3
2015-May-14 08:33N 34°06' E 134°60'1010.5
2015-May-14 07:33N 34°16' E 134°58'10 9.6
2015-May-14 06:31N 34°25' E 135°05'1111.2
2015-May-14 05:33N 34°30' E 135°16'9 9.0
2015-May-14 04:33N 34°33' E 135°26'1 0.2
2015-May-13 23:33N 34°33' E 135°25'8 8.0
2015-May-13 22:33N 34°31' E 135°16'1212.3
2015-May-13 21:33N 34°22' E 135°05'1111.3
2015-May-13 20:34N 34°12' E 134°60'1312.7
2015-May-13 19:31N 33°59' E 135°02'  

Dump ship's entire track history